Time;durP1;ratioP1;P1;durP2;ratioP2;P2;SDS_P1;SDS_P2;PMS_P1;PMS_P2;Temp;Humidity;BMP_temperature;BMP_pressure;BME280_temperature;BME280_humidity;BME280_pressure;Samples;Min_cycle;Max_cycle;Signal;HPM_P1;HPM_P2
2022/10/07 00:00:29;;;;;;;;;;;;;;;;;;1037892;28;2757;-55
2022/10/07 00:01:19;;;;;;;;;;;;;;;;;;1047273;28;2347;-56
2022/10/07 00:01:50;;;;;;;;;;;;;;;;;;1045248;28;2400;-56
2022/10/07 00:02:22;;;;;;;;;;;;;;;;;;1046175;28;2486;-57
2022/10/07 00:02:52;;;;;;;;;;;;;;;;;;1040653;28;2580;-56
2022/10/07 00:03:29;;;;;;;;;;;;;;;;;;1042549;28;1788;-57
2022/10/07 00:04:00;;;;;;;;;;;;;;;;;;1043112;28;2190;-56
2022/10/07 00:04:30;;;;;;;;;;;;;;;;;;1047978;28;2318;-57
2022/10/07 00:05:00;;;;;;;;;;;;;;;;;;1048884;28;2141;-57
2022/10/07 00:05:31;;;;;;;;;;;;;;;;;;1047541;28;1535;-57
2022/10/07 00:06:12;;;;;;;;;;;;;;;;;;1047772;28;2205;-57
2022/10/07 00:06:42;;;;;;;;;;;;;;;;;;1051402;28;2148;-55
2022/10/07 00:07:13;;;;;;;;;;;;;;;;;;1048651;28;2014;-58
2022/10/07 00:07:44;;;;;;;;;;;;;;;;;;1051928;28;1751;-57
2022/10/07 00:08:15;;;;;;;;;;;;;;;;;;1047172;28;2084;-57
2022/10/07 00:08:47;;;;;;;;;;;;;;;;;;1050382;28;1676;-56
2022/10/07 00:09:18;;;;;;;;;;;;;;;;;;1041776;28;2146;-56
2022/10/07 00:09:48;;;;;;;;;;;;;;;;;;1042380;28;2557;-57
2022/10/07 00:10:18;;;;;;;;;;;;;;;;;;1040456;28;2660;-56
2022/10/07 00:10:49;;;;;;;;;;;;;;;;;;1043123;28;2620;-56
2022/10/07 00:11:24;;;;;;;;;;;;;;;;;;1042589;28;3028;-57
2022/10/07 00:11:55;;;;;;;;;;;;;;;;;;1044523;28;2554;-57
2022/10/07 00:12:25;;;;;;;;;;;;;;;;;;1044577;28;3162;-56
2022/10/07 00:12:57;;;;;;;;;;;;;;;;;;1044534;28;2649;-57
2022/10/07 00:13:28;;;;;;;;;;;;;;;;;;1049019;28;2675;-58
2022/10/07 00:14:00;;;;;;;;;;;;;;;;;;1047672;28;2493;-57
2022/10/07 00:14:31;;;;;;;;;;;;;;;;;;1045376;28;2598;-56
2022/10/07 00:15:03;;;;;;;;;;;;;;;;;;1046080;28;2843;-56
2022/10/07 00:15:35;;;;;;;;;;;;;;;;;;1041696;28;2179;-58
2022/10/07 00:16:10;;;;;;;;;;;;;;;;;;1042763;28;2337;-56
2022/10/07 00:16:41;;;;;;;;;;;;;;;;;;1041918;28;2222;-56
2022/10/07 00:17:12;;;;;;;;;;;;;;;;;;1040935;28;1589;-57
2022/10/07 00:17:44;;;;;;;;;;;;;;;;;;1042176;28;2233;-58
2022/10/07 00:18:14;;;;;;;;;;;;;;;;;;1041820;28;2062;-56
2022/10/07 00:18:45;;;;;;;;;;;;;;;;;;1045138;28;2159;-57
2022/10/07 00:19:15;;;;;;;;;;;;;;;;;;1046066;28;1515;-58
2022/10/07 00:19:46;;;;;;;;;;;;;;;;;;1050553;28;1955;-56
2022/10/07 00:20:16;;;;;;;;;;;;;;;;;;1049082;28;1822;-57
2022/10/07 00:20:46;;;;;;;;;;;;;;;;;;1050372;28;1700;-58
2022/10/07 00:21:17;;;;;;;;;;;;;;;;;;1048612;28;3226;-56
2022/10/07 00:21:48;;;;;;;;;;;;;;;;;;1047755;28;1662;-57
2022/10/07 00:22:18;;;;;;;;;;;;;;;;;;1050050;28;2158;-58
2022/10/07 00:22:53;;;;;;;;;;;;;;;;;;1047501;28;2504;-58
2022/10/07 00:23:23;;;;;;;;;;;;;;;;;;1048858;28;2598;-58
2022/10/07 00:23:53;;;;;;;;;;;;;;;;;;1048618;28;2629;-57
2022/10/07 00:24:30;;;;;;;;;;;;;;;;;;1048394;28;2339;-55
2022/10/07 00:25:07;;;;;;;;;;;;;;;;;;1049451;28;2617;-54
2022/10/07 00:25:37;;;;;;;;;;;;;;;;;;1049449;28;2676;-55
2022/10/07 00:26:10;;;;;;;;;;;;;;;;;;1047993;28;2170;-55
2022/10/07 00:26:41;;;;;;;;;;;;;;;;;;1047531;28;2636;-55
2022/10/07 00:27:12;;;;;;;;;;;;;;;;;;1042579;28;2844;-56
2022/10/07 00:27:43;;;;;;;;;;;;;;;;;;1031966;28;2888;-55
2022/10/07 00:28:14;;;;;;;;;;;;;;;;;;1034441;28;2494;-56
2022/10/07 00:28:48;;;;;;;;;;;;;;;;;;1035703;28;2711;-56
2022/10/07 00:29:19;;;;;;;;;;;;;;;;;;1032843;28;2552;-57
2022/10/07 00:29:50;;;;;;;;;;;;;;;;;;1035352;28;2590;-55
2022/10/07 00:30:21;;;;;;;;;;;;;;;;;;1033036;28;2868;-57
2022/10/07 00:30:55;;;;;;;;;;;;;;;;;;1032843;28;2556;-55
2022/10/07 00:31:31;;;;;;;;;;;;;;;;;;1036217;28;1912;-58
2022/10/07 00:32:05;;;;;;;;;;;;;;;;;;1034072;28;2582;-56
2022/10/07 00:32:36;;;;;;;;;;;;;;;;;;1031359;28;1699;-57
2022/10/07 00:33:08;;;;;;;;;;;;;;;;;;1036931;28;2528;-56
2022/10/07 00:33:39;;;;;;;;;;;;;;;;;;1037872;28;2466;-57
2022/10/07 00:34:11;;;;;;;;;;;;;;;;;;1042218;28;2659;-58
2022/10/07 00:34:42;;;;;;;;;;;;;;;;;;1034421;28;1826;-57
2022/10/07 00:35:13;;;;;;;;;;;;;;;;;;1035500;28;2380;-57
2022/10/07 00:35:47;;;;;;;;;;;;;;;;;;1036222;28;1997;-58
2022/10/07 00:36:22;;;;;;;;;;;;;;;;;;1033377;28;2138;-56
2022/10/07 00:36:53;;;;;;;;;;;;;;;;;;1032595;28;2659;-57
2022/10/07 00:37:24;;;;;;;;;;;;;;;;;;1038372;28;2206;-57
2022/10/07 00:37:55;;;;;;;;;;;;;;;;;;1035288;28;1730;-57
2022/10/07 00:38:26;;;;;;;;;;;;;;;;;;1037990;28;2334;-56
2022/10/07 00:38:59;;;;;;;;;;;;;;;;;;1034301;28;1658;-56
2022/10/07 00:39:31;;;;;;;;;;;;;;;;;;1037068;28;2220;-57
2022/10/07 00:40:02;;;;;;;;;;;;;;;;;;1034783;28;1858;-56
2022/10/07 00:40:32;;;;;;;;;;;;;;;;;;1033572;28;2159;-57
2022/10/07 00:41:03;;;;;;;;;;;;;;;;;;1042020;28;2186;-57
2022/10/07 00:41:41;;;;;;;;;;;;;;;;;;1044392;28;2660;-57
2022/10/07 00:42:13;;;;;;;;;;;;;;;;;;1047533;28;1740;-56
2022/10/07 00:42:43;;;;;;;;;;;;;;;;;;1044176;28;2240;-58
2022/10/07 00:43:20;;;;;;;;;;;;;;;;;;1044483;28;2009;-56
2022/10/07 00:43:50;;;;;;;;;;;;;;;;;;1044541;28;2274;-56
2022/10/07 00:44:29;;;;;;;;;;;;;;;;;;1048191;28;1719;-56
2022/10/07 00:45:00;;;;;;;;;;;;;;;;;;1048487;28;2992;-56
2022/10/07 00:45:30;;;;;;;;;;;;;;;;;;1049426;28;2611;-56
2022/10/07 00:46:12;;;;;;;;;;;;;;;;;;1048731;28;2613;-57
2022/10/07 00:46:42;;;;;;;;;;;;;;;;;;1047486;28;2595;-58
2022/10/07 00:47:29;;;;;;;;;;;;;;;;;;1049363;28;2364;-57
2022/10/07 00:47:59;;;;;;;;;;;;;;;;;;1047919;28;2205;-57
2022/10/07 00:48:30;;;;;;;;;;;;;;;;;;1046045;28;2537;-55
2022/10/07 00:49:02;;;;;;;;;;;;;;;;;;1043899;28;2947;-58
2022/10/07 00:49:39;;;;;;;;;;;;;;;;;;1045411;28;4495;-58
2022/10/07 00:50:13;;;;;;;;;;;;;;;;;;1047767;28;2318;-57
2022/10/07 00:50:44;;;;;;;;;;;;;;;;;;1046996;28;1615;-57
2022/10/07 00:51:15;;;;;;;;;;;;;;;;;;1048367;28;2369;-57
2022/10/07 00:51:46;;;;;;;;;;;;;;;;;;1049029;28;2144;-57
2022/10/07 00:52:19;;;;;;;;;;;;;;;;;;1047531;28;2430;-58
2022/10/07 00:52:51;;;;;;;;;;;;;;;;;;1051294;28;1730;-55
2022/10/07 00:53:24;;;;;;;;;;;;;;;;;;1048233;28;2093;-57
2022/10/07 00:53:55;;;;;;;;;;;;;;;;;;1048907;28;2198;-57
2022/10/07 00:54:28;;;;;;;;;;;;;;;;;;1046874;28;2214;-57
2022/10/07 00:55:00;;;;;;;;;;;;;;;;;;1047956;28;2646;-57
2022/10/07 00:55:34;;;;;;;;;;;;;;;;;;1043504;28;2591;-57
2022/10/07 00:56:04;;;;;;;;;;;;;;;;;;1040170;28;2591;-56
2022/10/07 00:56:35;;;;;;;;;;;;;;;;;;1040505;28;2259;-56
2022/10/07 00:57:06;;;;;;;;;;;;;;;;;;1041541;28;2651;-57
2022/10/07 00:57:38;;;;;;;;;;;;;;;;;;1043614;28;2438;-55
2022/10/07 00:58:09;;;;;;;;;;;;;;;;;;1044788;28;2760;-56
2022/10/07 00:58:41;;;;;;;;;;;;;;;;;;1049156;28;2719;-56
2022/10/07 00:59:12;;;;;;;;;;;;;;;;;;1050688;28;2575;-58
2022/10/07 00:59:43;;;;;;;;;;;;;;;;;;1046437;28;1931;-57
2022/10/07 01:00:13;;;;;;;;;;;;;;;;;;1049757;28;2011;-55
2022/10/07 01:00:43;;;;;;;;;;;;;;;;;;1046626;28;1532;-58
2022/10/07 01:01:14;;;;;;;;;;;;;;;;;;1048906;28;2046;-57
2022/10/07 01:01:45;;;;;;;;;;;;;;;;;;1055223;28;1842;-57
2022/10/07 01:02:15;;;;;;;;;;;;;;;;;;1054755;28;2284;-56
2022/10/07 01:02:47;;;;;;;;;;;;;;;;;;1051024;28;1795;-56
2022/10/07 01:03:17;;;;;;;;;;;;;;;;;;1050930;28;2027;-58
2022/10/07 01:03:54;;;;;;;;;;;;;;;;;;1044265;28;2858;-55
2022/10/07 01:04:24;;;;;;;;;;;;;;;;;;1047324;28;2418;-55
2022/10/07 01:04:57;;;;;;;;;;;;;;;;;;1042828;28;3225;-56
2022/10/07 01:05:28;;;;;;;;;;;;;;;;;;1046356;28;2868;-56
2022/10/07 01:05:58;;;;;;;;;;;;;;;;;;1048474;28;2544;-57
2022/10/07 01:06:29;;;;;;;;;;;;;;;;;;1048891;28;2658;-57
2022/10/07 01:06:59;;;;;;;;;;;;;;;;;;1045948;28;3168;-57
2022/10/07 01:07:29;;;;;;;;;;;;;;;;;;1046722;28;1656;-55
2022/10/07 01:08:00;;;;;;;;;;;;;;;;;;1048314;28;2138;-56
2022/10/07 01:08:30;;;;;;;;;;;;;;;;;;1047267;28;2194;-55
2022/10/07 01:09:01;;;;;;;;;;;;;;;;;;1048478;28;2483;-57
2022/10/07 01:09:32;;;;;;;;;;;;;;;;;;1046821;28;1802;-57
2022/10/07 01:10:04;;;;;;;;;;;;;;;;;;1050298;28;2606;-57
2022/10/07 01:10:52;;;;;;;;;;;;;;;;;;1044424;28;2381;-58
2022/10/07 01:11:46;;;;;;;;;;;;;;;;;;1042379;28;1987;-56
2022/10/07 01:12:28;;;;;;;;;;;;;;;;;;1046572;28;1912;-58
2022/10/07 01:12:59;;;;;;;;;;;;;;;;;;1041089;28;2777;-58
2022/10/07 01:13:33;;;;;;;;;;;;;;;;;;1045417;28;1743;-57
2022/10/07 01:14:20;;;;;;;;;;;;;;;;;;1046884;28;1706;-55
2022/10/07 01:14:55;;;;;;;;;;;;;;;;;;1047808;28;1612;-58
2022/10/07 01:15:44;;;;;;;;;;;;;;;;;;1049748;28;2135;-58
2022/10/07 01:16:22;;;;;;;;;;;;;;;;;;1048681;28;1390;-56
2022/10/07 01:16:58;;;;;;;;;;;;;;;;;;1047465;28;1715;-57
2022/10/07 01:17:41;;;;;;;;;;;;;;;;;;1046749;28;2070;-57
2022/10/07 01:18:16;;;;;;;;;;;;;;;;;;1048816;28;2044;-55
2022/10/07 01:18:52;;;;;;;;;;;;;;;;;;1049369;28;2005;-55
2022/10/07 01:19:32;;;;;;;;;;;;;;;;;;1051459;28;1730;-55
2022/10/07 01:20:29;;;;;;;;;;;;;;;;;;1047810;28;2599;-56
2022/10/07 01:21:05;;;;;;;;;;;;;;;;;;1045569;28;2345;-57
2022/10/07 01:21:39;;;;;;;;;;;;;;;;;;1048754;28;2422;-56
2022/10/07 01:22:24;;;;;;;;;;;;;;;;;;1047857;28;2457;-57
2022/10/07 01:23:09;;;;;;;;;;;;;;;;;;1047106;28;2702;-56
2022/10/07 01:23:45;;;;;;;;;;;;;;;;;;1048677;28;2573;-57
2022/10/07 01:24:15;;;;;;;;;;;;;;;;;;1049396;28;2301;-56
2022/10/07 01:25:04;;;;;;;;;;;;;;;;;;1049190;28;2759;-56
2022/10/07 01:25:49;;;;;;;;;;;;;;;;;;1051020;28;2135;-56
2022/10/07 01:26:39;;;;;;;;;;;;;;;;;;1050352;28;2193;-58
2022/10/07 01:27:13;;;;;;;;;;;;;;;;;;1049191;28;1583;-56
2022/10/07 01:27:47;;;;;;;;;;;;;;;;;;1047741;28;1831;-56
2022/10/07 01:28:22;;;;;;;;;;;;;;;;;;1047408;28;2127;-58
2022/10/07 01:28:58;;;;;;;;;;;;;;;;;;1048939;28;2158;-55
2022/10/07 01:29:37;;;;;;;;;;;;;;;;;;1048474;28;1666;-58
2022/10/07 01:30:07;;;;;;;;;;;;;;;;;;1047803;28;2676;-56
2022/10/07 01:30:40;;;;;;;;;;;;;;;;;;1050545;28;2419;-56
2022/10/07 01:31:13;;;;;;;;;;;;;;;;;;1047052;28;1868;-56
2022/10/07 01:31:48;;;;;;;;;;;;;;;;;;1050746;28;2071;-56
2022/10/07 01:32:30;;;;;;;;;;;;;;;;;;1047939;28;2305;-57
2022/10/07 01:33:03;;;;;;;;;;;;;;;;;;1047334;28;2198;-58
2022/10/07 01:33:35;;;;;;;;;;;;;;;;;;1048080;28;1856;-57
2022/10/07 01:34:06;;;;;;;;;;;;;;;;;;1046258;28;3763;-56
2022/10/07 01:34:45;;;;;;;;;;;;;;;;;;1047227;28;2584;-58
2022/10/07 01:35:18;;;;;;;;;;;;;;;;;;1048881;28;2852;-57
2022/10/07 01:35:49;;;;;;;;;;;;;;;;;;1048142;28;2073;-58
2022/10/07 01:36:22;;;;;;;;;;;;;;;;;;1049140;28;2218;-57
2022/10/07 01:36:54;;;;;;;;;;;;;;;;;;1043749;28;2640;-57
2022/10/07 01:37:27;;;;;;;;;;;;;;;;;;1042328;28;2993;-56
2022/10/07 01:38:00;;;;;;;;;;;;;;;;;;1045124;28;2827;-58
2022/10/07 01:38:32;;;;;;;;;;;;;;;;;;1042754;28;2676;-57
2022/10/07 01:39:05;;;;;;;;;;;;;;;;;;1048900;28;2354;-57
2022/10/07 01:39:38;;;;;;;;;;;;;;;;;;1046999;28;2476;-57
2022/10/07 01:40:11;;;;;;;;;;;;;;;;;;1046084;28;3190;-58
2022/10/07 01:40:47;;;;;;;;;;;;;;;;;;1046486;28;1846;-57
2022/10/07 01:41:18;;;;;;;;;;;;;;;;;;1043854;28;1924;-56
2022/10/07 01:41:49;;;;;;;;;;;;;;;;;;1045926;28;2231;-59
2022/10/07 01:42:20;;;;;;;;;;;;;;;;;;1051032;28;2539;-57
2022/10/07 01:42:51;;;;;;;;;;;;;;;;;;1049020;28;2216;-57
2022/10/07 01:43:23;;;;;;;;;;;;;;;;;;1048832;28;2780;-54
2022/10/07 01:43:54;;;;;;;;;;;;;;;;;;1050474;28;2453;-56
2022/10/07 01:44:27;;;;;;;;;;;;;;;;;;1046535;28;2283;-58
2022/10/07 01:44:58;;;;;;;;;;;;;;;;;;1045129;28;2891;-57
2022/10/07 01:45:29;;;;;;;;;;;;;;;;;;1046066;28;3022;-54
2022/10/07 01:46:00;;;;;;;;;;;;;;;;;;1045009;28;2165;-55
2022/10/07 01:46:34;;;;;;;;;;;;;;;;;;1051093;28;2376;-55
2022/10/07 01:47:06;;;;;;;;;;;;;;;;;;1040812;28;2153;-55
2022/10/07 01:47:36;;;;;;;;;;;;;;;;;;1043249;28;1759;-54
2022/10/07 01:48:07;;;;;;;;;;;;;;;;;;1045513;28;2261;-56
2022/10/07 01:48:37;;;;;;;;;;;;;;;;;;1045101;28;2749;-55
2022/10/07 01:49:08;;;;;;;;;;;;;;;;;;1049218;28;2425;-55
2022/10/07 01:49:40;;;;;;;;;;;;;;;;;;1051325;28;2824;-56
2022/10/07 01:50:12;;;;;;;;;;;;;;;;;;1050332;28;2039;-55
2022/10/07 01:50:43;;;;;;;;;;;;;;;;;;1046623;28;2810;-56
2022/10/07 01:51:15;;;;;;;;;;;;;;;;;;1046368;28;2041;-55
2022/10/07 01:51:51;;;;;;;;;;;;;;;;;;1046983;28;2189;-54
2022/10/07 01:52:42;;;;;;;;;;;;;;;;;;1050730;28;2240;-55
2022/10/07 01:53:19;;;;;;;;;;;;;;;;;;1050988;28;1608;-58
2022/10/07 01:54:01;;;;;;;;;;;;;;;;;;1050050;28;2144;-55
2022/10/07 01:54:38;;;;;;;;;;;;;;;;;;1047776;28;2619;-54
2022/10/07 01:55:18;;;;;;;;;;;;;;;;;;1049761;28;2212;-56
2022/10/07 01:55:53;;;;;;;;;;;;;;;;;;1050274;28;2154;-56
2022/10/07 01:56:42;;;;;;;;;;;;;;;;;;1048110;28;2097;-58
2022/10/07 01:57:16;;;;;;;;;;;;;;;;;;1048775;28;2365;-54
2022/10/07 01:57:46;;;;;;;;;;;;;;;;;;1047519;28;2590;-58
2022/10/07 01:58:30;;;;;;;;;;;;;;;;;;1048749;28;2296;-57
2022/10/07 01:59:19;;;;;;;;;;;;;;;;;;1047414;28;2124;-56
2022/10/07 01:59:50;;;;;;;;;;;;;;;;;;1049461;28;2844;-57
2022/10/07 02:00:21;;;;;;;;;;;;;;;;;;1049058;28;3015;-54
2022/10/07 02:01:12;;;;;;;;;;;;;;;;;;1047286;28;2758;-57
2022/10/07 02:01:47;;;;;;;;;;;;;;;;;;1047865;28;1590;-56
2022/10/07 02:02:20;;;;;;;;;;;;;;;;;;1047134;28;2431;-56
2022/10/07 02:02:55;;;;;;;;;;;;;;;;;;1045310;28;2559;-54
2022/10/07 02:03:51;;;;;;;;;;;;;;;;;;1044092;28;2835;-56
2022/10/07 02:04:22;;;;;;;;;;;;;;;;;;1045065;28;2706;-56
2022/10/07 02:05:10;;;;;;;;;;;;;;;;;;1050686;28;2384;-56
2022/10/07 02:05:45;;;;;;;;;;;;;;;;;;1048397;28;2370;-56
2022/10/07 02:06:16;;;;;;;;;;;;;;;;;;1050796;28;1677;-56
2022/10/07 02:06:58;;;;;;;;;;;;;;;;;;1048415;28;2281;-55
2022/10/07 02:07:36;;;;;;;;;;;;;;;;;;1048003;28;2512;-56
2022/10/07 02:08:26;;;;;;;;;;;;;;;;;;1048290;28;3123;-54
2022/10/07 02:08:59;;;;;;;;;;;;;;;;;;1050110;28;2482;-57
2022/10/07 02:09:30;;;;;;;;;;;;;;;;;;1051857;28;1947;-56
2022/10/07 02:10:19;;;;;;;;;;;;;;;;;;1050376;28;2575;-54
2022/10/07 02:10:49;;;;;;;;;;;;;;;;;;1047201;28;1649;-56
2022/10/07 02:11:21;;;;;;;;;;;;;;;;;;1049185;28;2215;-58
2022/10/07 02:11:56;;;;;;;;;;;;;;;;;;1047323;28;2764;-55
2022/10/07 02:12:32;;;;;;;;;;;;;;;;;;1049818;28;1703;-56
2022/10/07 02:13:07;;;;;;;;;;;;;;;;;;1050561;28;2003;-57
2022/10/07 02:13:57;;;;;;;;;;;;;;;;;;1050195;28;2058;-57
2022/10/07 02:14:39;;;;;;;;;;;;;;;;;;1050216;28;2089;-57
2022/10/07 02:15:14;;;;;;;;;;;;;;;;;;1047176;28;2147;-57
2022/10/07 02:15:50;;;;;;;;;;;;;;;;;;1047769;28;2144;-57
2022/10/07 02:16:24;;;;;;;;;;;;;;;;;;1048363;28;2388;-57
2022/10/07 02:17:01;;;;;;;;;;;;;;;;;;1045889;28;2143;-55
2022/10/07 02:17:36;;;;;;;;;;;;;;;;;;1044381;28;2255;-57
2022/10/07 02:18:07;;;;;;;;;;;;;;;;;;1045152;28;1686;-57
2022/10/07 02:18:40;;;;;;;;;;;;;;;;;;1043445;28;2485;-57
2022/10/07 02:19:14;;;;;;;;;;;;;;;;;;1042983;28;1729;-56
2022/10/07 02:19:47;;;;;;;;;;;;;;;;;;1042159;28;2185;-56
2022/10/07 02:20:18;;;;;;;;;;;;;;;;;;1044163;28;2053;-54
2022/10/07 02:20:50;;;;;;;;;;;;;;;;;;1041641;28;2675;-56
2022/10/07 02:21:24;;;;;;;;;;;;;;;;;;1047817;28;2105;-55
2022/10/07 02:21:56;;;;;;;;;;;;;;;;;;1047319;28;1877;-56
2022/10/07 02:22:27;;;;;;;;;;;;;;;;;;1047627;28;1689;-55
2022/10/07 02:22:59;;;;;;;;;;;;;;;;;;1048016;28;2241;-56
2022/10/07 02:23:33;;;;;;;;;;;;;;;;;;1048706;28;2612;-57
2022/10/07 02:24:04;;;;;;;;;;;;;;;;;;1049357;28;2981;-56
2022/10/07 02:24:44;;;;;;;;;;;;;;;;;;1049420;28;2514;-54
2022/10/07 02:25:21;;;;;;;;;;;;;;;;;;1049554;28;2739;-57
2022/10/07 02:26:03;;;;;;;;;;;;;;;;;;1047840;28;2161;-56
2022/10/07 02:26:34;;;;;;;;;;;;;;;;;;1048644;28;2170;-55
2022/10/07 02:27:15;;;;;;;;;;;;;;;;;;1053114;28;2129;-57
2022/10/07 02:27:47;;;;;;;;;;;;;;;;;;1053958;28;3163;-56
2022/10/07 02:28:19;;;;;;;;;;;;;;;;;;1052965;28;2586;-56
2022/10/07 02:28:51;;;;;;;;;;;;;;;;;;1052761;28;2544;-58
2022/10/07 02:29:23;;;;;;;;;;;;;;;;;;1052561;28;2709;-53
2022/10/07 02:29:56;;;;;;;;;;;;;;;;;;1054331;28;3185;-55
2022/10/07 02:30:26;;;;;;;;;;;;;;;;;;1053274;28;2728;-54
2022/10/07 02:31:00;;;;;;;;;;;;;;;;;;1052796;28;2085;-54
2022/10/07 02:31:40;;;;;;;;;;;;;;;;;;1051922;28;3207;-56
2022/10/07 02:32:14;;;;;;;;;;;;;;;;;;1048642;28;2661;-55
2022/10/07 02:32:46;;;;;;;;;;;;;;;;;;1050697;28;2625;-55
2022/10/07 02:33:18;;;;;;;;;;;;;;;;;;1051005;28;2522;-57
2022/10/07 02:33:52;;;;;;;;;;;;;;;;;;1050443;28;2346;-56
2022/10/07 02:34:24;;;;;;;;;;;;;;;;;;1043976;28;2622;-55
2022/10/07 02:34:58;;;;;;;;;;;;;;;;;;1045467;28;2831;-55
2022/10/07 02:35:31;;;;;;;;;;;;;;;;;;1041506;28;2185;-56
2022/10/07 02:36:03;;;;;;;;;;;;;;;;;;1041026;28;2621;-56
2022/10/07 02:36:37;;;;;;;;;;;;;;;;;;1047861;28;3200;-56
2022/10/07 02:37:23;;;;;;;;;;;;;;;;;;1049131;28;2515;-56
2022/10/07 02:37:56;;;;;;;;;;;;;;;;;;1048747;28;2534;-56
2022/10/07 02:38:28;;;;;;;;;;;;;;;;;;1049562;28;2413;-56
2022/10/07 02:38:59;;;;;;;;;;;;;;;;;;1043711;28;2743;-55
2022/10/07 02:39:30;;;;;;;;;;;;;;;;;;1045558;28;2606;-56
2022/10/07 02:40:01;;;;;;;;;;;;;;;;;;1047562;28;1996;-56
2022/10/07 02:40:35;;;;;;;;;;;;;;;;;;1045393;28;2168;-55
2022/10/07 02:41:30;;;;;;;;;;;;;;;;;;1052056;28;1930;-56
2022/10/07 02:42:22;;;;;;;;;;;;;;;;;;1047033;28;1889;-56
2022/10/07 02:43:05;;;;;;;;;;;;;;;;;;1041217;28;1896;-57
2022/10/07 02:43:42;;;;;;;;;;;;;;;;;;1043683;28;2137;-56
2022/10/07 02:44:30;;;;;;;;;;;;;;;;;;1046659;28;2218;-57
2022/10/07 02:45:07;;;;;;;;;;;;;;;;;;1043579;28;1979;-56
2022/10/07 02:45:44;;;;;;;;;;;;;;;;;;1044409;28;1794;-55
2022/10/07 02:46:21;;;;;;;;;;;;;;;;;;1047215;28;1607;-55
2022/10/07 02:46:56;;;;;;;;;;;;;;;;;;1051616;28;2193;-55
2022/10/07 02:47:30;;;;;;;;;;;;;;;;;;1050541;28;1661;-55
2022/10/07 02:48:03;;;;;;;;;;;;;;;;;;1050955;28;2220;-55
2022/10/07 02:48:36;;;;;;;;;;;;;;;;;;1049005;28;3014;-56
2022/10/07 02:49:08;;;;;;;;;;;;;;;;;;1049933;28;2614;-56
2022/10/07 02:49:41;;;;;;;;;;;;;;;;;;1054640;28;2350;-55
2022/10/07 02:50:13;;;;;;;;;;;;;;;;;;1047237;28;2622;-57
2022/10/07 02:50:46;;;;;;;;;;;;;;;;;;1048005;28;2596;-56
2022/10/07 02:51:19;;;;;;;;;;;;;;;;;;1040716;28;2686;-57
2022/10/07 02:51:55;;;;;;;;;;;;;;;;;;1042991;28;2410;-54
2022/10/07 02:52:29;;;;;;;;;;;;;;;;;;1045353;28;2525;-54
2022/10/07 02:53:01;;;;;;;;;;;;;;;;;;1043558;28;2544;-55
2022/10/07 02:53:33;;;;;;;;;;;;;;;;;;1042234;28;2461;-55
2022/10/07 02:54:04;;;;;;;;;;;;;;;;;;1038155;28;1692;-55
2022/10/07 02:54:38;;;;;;;;;;;;;;;;;;1036955;28;1984;-57
2022/10/07 02:55:11;;;;;;;;;;;;;;;;;;1043068;28;1844;-59
2022/10/07 02:55:42;;;;;;;;;;;;;;;;;;1051519;28;2177;-57
2022/10/07 02:56:15;;;;;;;;;;;;;;;;;;1047100;28;2209;-58
2022/10/07 02:56:46;;;;;;;;;;;;;;;;;;1050926;28;2045;-58
2022/10/07 02:57:18;;;;;;;;;;;;;;;;;;1048488;28;2393;-56
2022/10/07 02:57:51;;;;;;;;;;;;;;;;;;1045693;28;2750;-54
2022/10/07 02:58:25;;;;;;;;;;;;;;;;;;1048428;28;2622;-54
2022/10/07 02:58:55;;;;;;;;;;;;;;;;;;1044522;28;2268;-55
2022/10/07 02:59:27;;;;;;;;;;;;;;;;;;1050028;28;1977;-56
2022/10/07 02:59:59;;;;;;;;;;;;;;;;;;1054683;28;2217;-56
2022/10/07 03:00:30;;;;;;;;;;;;;;;;;;1046713;28;1927;-55
2022/10/07 03:01:02;;;;;;;;;;;;;;;;;;1047703;28;2209;-55
2022/10/07 03:01:37;;;;;;;;;;;;;;;;;;1046912;28;1804;-59
2022/10/07 03:02:12;;;;;;;;;;;;;;;;;;1048134;28;2011;-56
2022/10/07 03:03:02;;;;;;;;;;;;;;;;;;1055258;28;1758;-56
2022/10/07 03:03:37;;;;;;;;;;;;;;;;;;1046889;28;1945;-56
2022/10/07 03:04:07;;;;;;;;;;;;;;;;;;1046482;28;2036;-55
2022/10/07 03:04:38;;;;;;;;;;;;;;;;;;1041358;28;2599;-56
2022/10/07 03:05:10;;;;;;;;;;;;;;;;;;1044380;28;1903;-58
2022/10/07 03:05:40;;;;;;;;;;;;;;;;;;1043833;28;2145;-54
2022/10/07 03:06:12;;;;;;;;;;;;;;;;;;1039302;28;1623;-54
2022/10/07 03:06:42;;;;;;;;;;;;;;;;;;1040797;28;2323;-55
2022/10/07 03:07:12;;;;;;;;;;;;;;;;;;1043499;28;1621;-58
2022/10/07 03:07:43;;;;;;;;;;;;;;;;;;1046655;28;2218;-55
2022/10/07 03:08:14;;;;;;;;;;;;;;;;;;1051486;28;1755;-53
2022/10/07 03:08:46;;;;;;;;;;;;;;;;;;1048714;28;2364;-54
2022/10/07 03:09:17;;;;;;;;;;;;;;;;;;1046271;28;1763;-56
2022/10/07 03:09:48;;;;;;;;;;;;;;;;;;1045963;28;2207;-55
2022/10/07 03:10:18;;;;;;;;;;;;;;;;;;1043104;28;2023;-56
2022/10/07 03:10:48;;;;;;;;;;;;;;;;;;1041732;28;2505;-55
2022/10/07 03:11:19;;;;;;;;;;;;;;;;;;1045416;28;2631;-55
2022/10/07 03:11:52;;;;;;;;;;;;;;;;;;1049408;28;2143;-56
2022/10/07 03:12:23;;;;;;;;;;;;;;;;;;1050974;28;1692;-56
2022/10/07 03:12:54;;;;;;;;;;;;;;;;;;1046623;28;1672;-55
2022/10/07 03:13:25;;;;;;;;;;;;;;;;;;1040082;28;2384;-56
2022/10/07 03:13:55;;;;;;;;;;;;;;;;;;1041843;28;2330;-55
2022/10/07 03:14:25;;;;;;;;;;;;;;;;;;1040669;28;2568;-52
2022/10/07 03:14:56;;;;;;;;;;;;;;;;;;1048217;28;2514;-56
2022/10/07 03:15:26;;;;;;;;;;;;;;;;;;1052867;28;2786;-56
2022/10/07 03:15:57;;;;;;;;;;;;;;;;;;1055406;28;2129;-58
2022/10/07 03:16:28;;;;;;;;;;;;;;;;;;1054170;28;1901;-57
2022/10/07 03:16:58;;;;;;;;;;;;;;;;;;1050472;28;2120;-57
2022/10/07 03:17:29;;;;;;;;;;;;;;;;;;1050405;28;2161;-56
2022/10/07 03:18:00;;;;;;;;;;;;;;;;;;1045441;28;1616;-56
2022/10/07 03:18:30;;;;;;;;;;;;;;;;;;1041460;28;2218;-56
2022/10/07 03:19:01;;;;;;;;;;;;;;;;;;1045672;28;3437;-54
2022/10/07 03:19:31;;;;;;;;;;;;;;;;;;1043230;28;1634;-56
2022/10/07 03:20:02;;;;;;;;;;;;;;;;;;1047419;28;2014;-58
2022/10/07 03:20:32;;;;;;;;;;;;;;;;;;1041063;28;2101;-56
2022/10/07 03:21:03;;;;;;;;;;;;;;;;;;1041538;28;2152;-58
2022/10/07 03:21:33;;;;;;;;;;;;;;;;;;1046432;28;1969;-55
2022/10/07 03:22:04;;;;;;;;;;;;;;;;;;1041055;28;2035;-55
2022/10/07 03:22:34;;;;;;;;;;;;;;;;;;1047261;28;2132;-55
2022/10/07 03:23:05;;;;;;;;;;;;;;;;;;1047996;28;1966;-56
2022/10/07 03:23:35;;;;;;;;;;;;;;;;;;1049025;28;1622;-56
2022/10/07 03:24:05;;;;;;;;;;;;;;;;;;1053726;28;2100;-58
2022/10/07 03:24:42;;;;;;;;;;;;;;;;;;1052617;28;2437;-59
2022/10/07 03:25:19;;;;;;;;;;;;;;;;;;1053141;28;2086;-55
2022/10/07 03:25:50;;;;;;;;;;;;;;;;;;1053434;28;2216;-58
2022/10/07 03:26:20;;;;;;;;;;;;;;;;;;1052617;28;2737;-56
2022/10/07 03:26:51;;;;;;;;;;;;;;;;;;1051656;28;1525;-54
2022/10/07 03:27:21;;;;;;;;;;;;;;;;;;1052528;28;2188;-55
2022/10/07 03:27:58;;;;;;;;;;;;;;;;;;1053407;28;1728;-56
2022/10/07 03:28:30;;;;;;;;;;;;;;;;;;1054860;28;2215;-56
2022/10/07 03:29:01;;;;;;;;;;;;;;;;;;1054427;28;1931;-54
2022/10/07 03:29:33;;;;;;;;;;;;;;;;;;1053413;28;2295;-55
2022/10/07 03:30:05;;;;;;;;;;;;;;;;;;1046777;28;2156;-55
2022/10/07 03:30:35;;;;;;;;;;;;;;;;;;1046408;28;2227;-56
2022/10/07 03:31:06;;;;;;;;;;;;;;;;;;1045631;28;2578;-57
2022/10/07 03:31:37;;;;;;;;;;;;;;;;;;1046323;28;2206;-52
2022/10/07 03:32:07;;;;;;;;;;;;;;;;;;1054724;28;2630;-55
2022/10/07 03:32:39;;;;;;;;;;;;;;;;;;1049508;28;2394;-55
2022/10/07 03:33:09;;;;;;;;;;;;;;;;;;1049522;28;3183;-56
2022/10/07 03:33:40;;;;;;;;;;;;;;;;;;1049515;28;2600;-55
2022/10/07 03:34:10;;;;;;;;;;;;;;;;;;1049678;28;2580;-56
2022/10/07 03:34:40;;;;;;;;;;;;;;;;;;1052347;28;1694;-55
2022/10/07 03:35:14;;;;;;;;;;;;;;;;;;1052144;28;2093;-55
2022/10/07 03:35:44;;;;;;;;;;;;;;;;;;1055013;28;2252;-56
2022/10/07 03:36:15;;;;;;;;;;;;;;;;;;1052595;28;2260;-56
2022/10/07 03:36:46;;;;;;;;;;;;;;;;;;1046367;28;2163;-54
2022/10/07 03:37:16;;;;;;;;;;;;;;;;;;1045208;28;2448;-55
2022/10/07 03:37:47;;;;;;;;;;;;;;;;;;1045872;28;2351;-55
2022/10/07 03:38:17;;;;;;;;;;;;;;;;;;1045945;28;2259;-55
2022/10/07 03:38:48;;;;;;;;;;;;;;;;;;1047786;28;2166;-56
2022/10/07 03:39:19;;;;;;;;;;;;;;;;;;1051860;28;2157;-55
2022/10/07 03:39:51;;;;;;;;;;;;;;;;;;1054730;28;1863;-56
2022/10/07 03:40:22;;;;;;;;;;;;;;;;;;1045431;28;2302;-56
2022/10/07 03:40:53;;;;;;;;;;;;;;;;;;1046846;28;2541;-56
2022/10/07 03:41:24;;;;;;;;;;;;;;;;;;1041538;28;2758;-55
2022/10/07 03:41:55;;;;;;;;;;;;;;;;;;1040861;28;2655;-56
2022/10/07 03:42:26;;;;;;;;;;;;;;;;;;1043742;28;2719;-58
2022/10/07 03:42:56;;;;;;;;;;;;;;;;;;1046143;28;2267;-58
2022/10/07 03:43:27;;;;;;;;;;;;;;;;;;1052249;28;2317;-57
2022/10/07 03:43:58;;;;;;;;;;;;;;;;;;1054020;28;2949;-56
2022/10/07 03:44:28;;;;;;;;;;;;;;;;;;1046592;28;3218;-56
2022/10/07 03:44:59;;;;;;;;;;;;;;;;;;1050204;28;2336;-58
2022/10/07 03:45:29;;;;;;;;;;;;;;;;;;1048378;28;2596;-57
2022/10/07 03:46:01;;;;;;;;;;;;;;;;;;1049521;28;2286;-55
2022/10/07 03:46:34;;;;;;;;;;;;;;;;;;1053173;28;2675;-55
2022/10/07 03:47:04;;;;;;;;;;;;;;;;;;1053246;28;2161;-54
2022/10/07 03:47:35;;;;;;;;;;;;;;;;;;1053705;28;1918;-55
2022/10/07 03:48:08;;;;;;;;;;;;;;;;;;1055771;28;2165;-56
2022/10/07 03:48:39;;;;;;;;;;;;;;;;;;1050953;28;2116;-57
2022/10/07 03:49:09;;;;;;;;;;;;;;;;;;1051694;28;2209;-57
2022/10/07 03:49:41;;;;;;;;;;;;;;;;;;1046581;28;1388;-54
2022/10/07 03:50:11;;;;;;;;;;;;;;;;;;1042982;28;2208;-56
2022/10/07 03:50:47;;;;;;;;;;;;;;;;;;1041905;28;1845;-54
2022/10/07 03:51:17;;;;;;;;;;;;;;;;;;1039819;28;2324;-55
2022/10/07 03:51:47;;;;;;;;;;;;;;;;;;1043477;28;1655;-55
2022/10/07 03:52:18;;;;;;;;;;;;;;;;;;1043235;28;2232;-56
2022/10/07 03:52:49;;;;;;;;;;;;;;;;;;1046866;28;2007;-55
2022/10/07 03:53:20;;;;;;;;;;;;;;;;;;1049728;28;2352;-55